createdAt,value
2023-01-17T00:00:16.776Z,97010.66
2023-01-17T00:02:48.077Z,97006.31
2023-01-17T00:05:38.203Z,97032.09
2023-01-17T00:08:30.823Z,97018.97
2023-01-17T00:11:02.162Z,97008.03
2023-01-17T00:13:33.461Z,97013.28
2023-01-17T00:16:05.012Z,97015.88
2023-01-17T00:18:36.320Z,97013.19
2023-01-17T00:21:26.439Z,97010.50
2023-01-17T00:24:16.251Z,97001.84
2023-01-17T00:27:06.256Z,96987.50
2023-01-17T00:29:37.506Z,97008.03
2023-01-17T00:32:08.743Z,96991.97
2023-01-17T00:34:39.990Z,96990.13
2023-01-17T00:37:11.231Z,97009.63
2023-01-17T00:39:42.488Z,97005.25
2023-01-17T00:42:13.725Z,96999.16
2023-01-17T00:45:03.832Z,96993.97
2023-01-17T00:47:55.187Z,97012.03
2023-01-17T00:50:46.199Z,96993.91
2023-01-17T00:53:36.725Z,97009.25
2023-01-17T00:56:26.648Z,96998.75
2023-01-17T00:59:16.532Z,97000.63
2023-01-17T01:02:06.397Z,96998.16
2023-01-17T01:04:56.568Z,96991.28
2023-01-17T01:07:46.583Z,96976.84
2023-01-17T01:10:36.675Z,96981.03
2023-01-17T01:13:26.670Z,96986.41
2023-01-17T01:16:20.617Z,96992.91
2023-01-17T01:19:10.290Z,96979.47
2023-01-17T01:22:00.397Z,97006.63
2023-01-17T01:24:50.353Z,97003.84
2023-01-17T01:27:40.304Z,97010.72
2023-01-17T01:30:30.378Z,97002.06
2023-01-17T01:33:20.272Z,97002.00
2023-01-17T01:35:54.336Z,97003.78
2023-01-17T01:38:25.727Z,96997.84
2023-01-17T01:40:57.076Z,97012.00
2023-01-17T01:43:47.848Z,97006.50
2023-01-17T01:46:25.048Z,97005.41
2023-01-17T01:49:06.087Z,97000.41
2023-01-17T01:51:45.143Z,97006.88
2023-01-17T01:54:28.092Z,96982.19
2023-01-17T01:57:03.718Z,96980.50
2023-01-17T01:59:42.368Z,96986.53
2023-01-17T02:02:13.938Z,96994.16
2023-01-17T02:04:45.850Z,97005.88
2023-01-17T02:07:23.808Z,96994.91
2023-01-17T02:09:55.123Z,96995.59
2023-01-17T02:12:26.592Z,97001.31
2023-01-17T02:14:58.657Z,97002.00
2023-01-17T02:18:02.375Z,97003.59
2023-01-17T02:20:58.513Z,97001.84
2023-01-17T02:24:14.113Z,97001.75
2023-01-17T02:26:52.326Z,96999.97
2023-01-17T02:29:26.851Z,97002.53
2023-01-17T02:32:04.999Z,96999.91
2023-01-17T02:34:47.213Z,97001.25
2023-01-17T02:37:52.743Z,97002.19
2023-01-17T02:40:34.275Z,97008.22
2023-01-17T02:43:16.265Z,97006.34
2023-01-17T02:45:47.694Z,96992.03
2023-01-17T02:48:24.417Z,97002.03
2023-01-17T02:51:16.491Z,96995.25
2023-01-17T02:54:23.797Z,97000.25
2023-01-17T02:57:30.639Z,96982.69
2023-01-17T03:00:22.491Z,96997.28
2023-01-17T03:03:03.086Z,97010.84
2023-01-17T03:05:50.702Z,97011.69
2023-01-17T03:08:22.382Z,97006.59
2023-01-17T03:10:54.492Z,96996.66
2023-01-17T03:13:25.801Z,97020.56
2023-01-17T03:15:57.082Z,97027.00
2023-01-17T03:18:28.348Z,96983.13
2023-01-17T03:20:59.704Z,97032.47
2023-01-17T03:23:30.950Z,97015.16
2023-01-17T03:26:02.333Z,97034.81
2023-01-17T03:28:33.732Z,97045.56
2023-01-17T03:31:05.307Z,97029.44
2023-01-17T03:33:36.605Z,97027.72
2023-01-17T03:36:08.163Z,97047.63
2023-01-17T03:38:39.700Z,97041.00
2023-01-17T03:41:11.037Z,97043.03
2023-01-17T03:43:42.315Z,97032.88
2023-01-17T03:46:25.666Z,97045.06
2023-01-17T03:48:56.986Z,97055.25
2023-01-17T03:51:28.298Z,97060.63
2023-01-17T03:53:59.542Z,97054.84
2023-01-17T03:56:30.809Z,97052.31
2023-01-17T03:59:02.104Z,97038.03
2023-01-17T04:01:33.584Z,97062.78
2023-01-17T04:04:05.000Z,97062.03
2023-01-17T04:06:36.253Z,97058.56
2023-01-17T04:09:07.815Z,97046.75
2023-01-17T04:11:39.115Z,97057.56
2023-01-17T04:14:10.428Z,97066.34
2023-01-17T04:16:41.922Z,97065.50
2023-01-17T04:19:13.661Z,97069.97
2023-01-17T04:21:45.003Z,97025.81
2023-01-17T04:24:17.866Z,97067.56
2023-01-17T04:26:49.432Z,97070.91
2023-01-17T04:29:20.820Z,97076.00
2023-01-17T04:31:52.237Z,97061.56
2023-01-17T04:34:23.616Z,97063.94
2023-01-17T04:36:54.963Z,97044.34
2023-01-17T04:39:26.327Z,97081.63
2023-01-17T04:41:57.640Z,97065.72
2023-01-17T04:44:28.915Z,97087.03
2023-01-17T04:47:01.862Z,97084.09
2023-01-17T04:49:33.110Z,97080.78
2023-01-17T04:52:04.629Z,97084.94
2023-01-17T04:54:35.903Z,97092.13
2023-01-17T04:57:07.264Z,97102.63
2023-01-17T04:59:38.544Z,97112.19
2023-01-17T05:02:10.742Z,97102.63
2023-01-17T05:04:42.121Z,97106.16
2023-01-17T05:07:13.830Z,97104.84
2023-01-17T05:09:45.133Z,97117.75
2023-01-17T05:12:16.428Z,97082.38
2023-01-17T05:14:47.688Z,97122.34
2023-01-17T05:17:19.376Z,97133.94
2023-01-17T05:19:50.672Z,97147.19
2023-01-17T05:22:21.935Z,97140.38
2023-01-17T05:24:53.510Z,97144.22
2023-01-17T05:27:24.863Z,97164.00
2023-01-17T05:29:56.147Z,97156.84
2023-01-17T05:32:27.419Z,97183.63
2023-01-17T05:34:58.708Z,97177.53
2023-01-17T05:37:29.982Z,97209.28
2023-01-17T05:40:01.334Z,97207.66
2023-01-17T05:42:32.582Z,97212.97
2023-01-17T05:45:04.192Z,97218.50
2023-01-17T05:47:35.537Z,97222.19
2023-01-17T05:50:07.329Z,97230.13
2023-01-17T05:52:38.787Z,97243.28
2023-01-17T05:55:10.191Z,97240.81
2023-01-17T05:57:41.445Z,97240.44
2023-01-17T06:00:13.896Z,97253.53
2023-01-17T06:02:46.187Z,97267.72
2023-01-17T06:05:17.495Z,97270.59
2023-01-17T06:07:49.674Z,97282.25
2023-01-17T06:10:22.050Z,97285.16
2023-01-17T06:13:12.268Z,97292.22
2023-01-17T06:15:43.743Z,97294.47
2023-01-17T06:18:17.613Z,97310.97
2023-01-17T06:20:54.325Z,97325.06
2023-01-17T06:23:25.831Z,97334.63
2023-01-17T06:25:57.097Z,97333.81
2023-01-17T06:28:28.447Z,97340.84
2023-01-17T06:31:04.830Z,97354.06
2023-01-17T06:33:36.507Z,97329.22
2023-01-17T06:36:08.048Z,97334.84
2023-01-17T06:38:39.310Z,97366.44
2023-01-17T06:41:10.589Z,97358.94
2023-01-17T06:43:41.858Z,97366.56
2023-01-17T06:46:13.160Z,97377.03
2023-01-17T06:48:44.576Z,97378.13
2023-01-17T06:51:16.218Z,97387.81
2023-01-17T06:53:48.295Z,97382.75
2023-01-17T06:56:20.274Z,97393.84
2023-01-17T06:58:51.999Z,97401.63
2023-01-17T07:01:23.618Z,97400.97
2023-01-17T07:03:55.047Z,97406.81
2023-01-17T07:06:28.654Z,97419.78
2023-01-17T07:09:00.971Z,97416.44
2023-01-17T07:11:32.457Z,97438.72
2023-01-17T07:14:03.748Z,97435.19
2023-01-17T07:16:35.083Z,97444.69
2023-01-17T07:19:06.379Z,97454.19
2023-01-17T07:21:37.626Z,97446.28
2023-01-17T07:24:09.264Z,97462.84
2023-01-17T07:26:40.683Z,97470.63
2023-01-17T07:29:11.988Z,97475.72
2023-01-17T07:31:43.630Z,97477.31
2023-01-17T07:34:15.053Z,97485.03
2023-01-17T07:36:48.433Z,97476.63
2023-01-17T07:39:19.743Z,97486.09
2023-01-17T07:41:50.994Z,97484.50
2023-01-17T07:44:22.308Z,97491.44
2023-01-17T07:46:54.858Z,97504.47
2023-01-17T07:49:26.297Z,97507.44
2023-01-17T07:51:57.558Z,97516.16
2023-01-17T07:54:28.851Z,97519.13
2023-01-17T07:57:00.109Z,97529.03
2023-01-17T07:59:33.662Z,97531.25
2023-01-17T08:02:04.977Z,97539.06
2023-01-17T08:04:36.290Z,97494.03
2023-01-17T08:07:07.557Z,97540.25
2023-01-17T08:09:38.851Z,97547.19
2023-01-17T08:12:10.541Z,97553.13
2023-01-17T08:14:41.868Z,97536.78
2023-01-17T08:17:15.983Z,97558.00
2023-01-17T08:19:51.127Z,97568.38
2023-01-17T08:22:22.376Z,97569.16
2023-01-17T08:24:53.643Z,97567.47
2023-01-17T08:27:24.993Z,97580.66
2023-01-17T08:29:56.243Z,97572.06
2023-01-17T08:32:27.517Z,97572.81
2023-01-17T08:34:58.782Z,97590.00
2023-01-17T08:37:30.111Z,97533.53
2023-01-17T08:40:01.393Z,97608.13
2023-01-17T08:42:39.063Z,97592.63
2023-01-17T08:45:11.626Z,97606.97
2023-01-17T08:47:42.888Z,97610.13
2023-01-17T08:50:14.291Z,97625.56
2023-01-17T08:52:45.816Z,97623.91
2023-01-17T08:55:17.693Z,97605.22
2023-01-17T08:57:48.953Z,97632.19
2023-01-17T09:00:20.652Z,97634.75
2023-01-17T09:02:53.029Z,97633.91
2023-01-17T09:05:24.290Z,97649.25
2023-01-17T09:07:56.586Z,97650.75
2023-01-17T09:10:27.846Z,97647.94
2023-01-17T09:12:59.096Z,97651.47
2023-01-17T09:15:30.355Z,97660.38
2023-01-17T09:18:01.611Z,97662.41
2023-01-17T09:20:32.892Z,97657.16
2023-01-17T09:23:04.214Z,97657.16
2023-01-17T09:25:35.555Z,97651.03
2023-01-17T09:28:06.801Z,97670.84
2023-01-17T09:30:38.171Z,97669.13
2023-01-17T09:33:09.417Z,97683.25
2023-01-17T09:35:40.736Z,97674.81
2023-01-17T09:38:12.856Z,97691.97
2023-01-17T09:40:47.299Z,97692.09
2023-01-17T09:43:31.888Z,97672.47
2023-01-17T09:46:05.618Z,97707.41
2023-01-17T09:48:39.414Z,97685.88
2023-01-17T09:51:22.996Z,97679.22
2023-01-17T09:53:54.959Z,97715.66
2023-01-17T09:56:31.781Z,97714.06
2023-01-17T09:59:33.216Z,97720.13
2023-01-17T10:02:43.503Z,97717.53
2023-01-17T10:05:32.143Z,97716.75
2023-01-17T10:08:34.097Z,97699.03
2023-01-17T10:11:23.749Z,97714.38
2023-01-17T10:14:18.869Z,97724.59
2023-01-17T10:17:16.256Z,97721.06
2023-01-17T10:20:19.604Z,97728.94
2023-01-17T10:23:18.423Z,97722.91
2023-01-17T10:25:52.387Z,97738.56
2023-01-17T10:28:33.389Z,97736.75
2023-01-17T10:31:12.795Z,97734.00
2023-01-17T10:33:59.182Z,97720.38
2023-01-17T10:36:38.421Z,97736.63
2023-01-17T10:39:24.385Z,97734.88
2023-01-17T10:41:57.873Z,97739.13
2023-01-17T10:44:52.953Z,97711.88
2023-01-17T10:47:24.906Z,97738.06
2023-01-17T10:49:58.278Z,97741.88
2023-01-17T10:52:50.615Z,97753.69
2023-01-17T10:55:48.442Z,97744.09
2023-01-17T10:58:19.947Z,97749.41
2023-01-17T11:01:00.260Z,97758.13
2023-01-17T11:03:32.052Z,97760.06
2023-01-17T11:06:22.101Z,97761.75
2023-01-17T11:08:58.585Z,97760.75
2023-01-17T11:11:32.230Z,97769.50
2023-01-17T11:14:18.289Z,97763.25
2023-01-17T11:17:04.743Z,97755.28
2023-01-17T11:19:36.349Z,97744.16
2023-01-17T11:22:14.623Z,97753.34
2023-01-17T11:24:52.833Z,97749.94
2023-01-17T11:27:28.478Z,97753.47
2023-01-17T11:30:05.549Z,97763.84
2023-01-17T11:32:36.835Z,97756.81
2023-01-17T11:35:18.129Z,97761.09
2023-01-17T11:38:19.621Z,97757.63
2023-01-17T11:41:12.401Z,97754.38
2023-01-17T11:43:53.402Z,97751.59
2023-01-17T11:46:25.162Z,97758.53
2023-01-17T11:49:00.956Z,97760.19
2023-01-17T11:51:39.120Z,97760.31
2023-01-17T11:54:31.773Z,97762.47
2023-01-17T11:57:03.099Z,97759.69
2023-01-17T11:59:37.369Z,97768.88
2023-01-17T12:02:31.687Z,97770.56
2023-01-17T12:05:37.824Z,97753.25
2023-01-17T12:08:28.475Z,97762.59
2023-01-17T12:11:02.616Z,97773.88
2023-01-17T12:14:01.891Z,97761.56
2023-01-17T12:16:45.119Z,97793.78
2023-01-17T12:19:39.791Z,97786.13
2023-01-17T12:22:47.005Z,97776.84
2023-01-17T12:25:37.235Z,97794.88
2023-01-17T12:28:46.215Z,97797.69
2023-01-17T12:31:17.516Z,97805.91
2023-01-17T12:33:56.523Z,97793.22
2023-01-17T12:36:50.278Z,97809.09
2023-01-17T12:39:28.521Z,97803.47
2023-01-17T12:42:03.707Z,97811.09
2023-01-17T12:44:56.455Z,97815.72
2023-01-17T12:47:27.769Z,97796.94
2023-01-17T12:50:15.665Z,97815.84
2023-01-17T12:53:01.808Z,97811.53
2023-01-17T12:55:49.756Z,97826.78
2023-01-17T12:58:25.024Z,97819.56
2023-01-17T13:01:04.300Z,97824.81
2023-01-17T13:03:47.606Z,97811.41
2023-01-17T13:06:32.671Z,97823.63
2023-01-17T13:09:05.459Z,97822.81
2023-01-17T13:11:45.881Z,97831.38
2023-01-17T13:14:17.258Z,97819.03
2023-01-17T13:17:00.530Z,97816.91
2023-01-17T13:19:47.579Z,97827.28
2023-01-17T13:22:22.838Z,97825.50
2023-01-17T13:25:20.162Z,97828.19
2023-01-17T13:28:00.501Z,97828.88
2023-01-17T13:30:46.063Z,97799.75
2023-01-17T13:33:43.764Z,97829.91
2023-01-17T13:36:29.829Z,97840.28
2023-01-17T13:39:29.646Z,97844.94
2023-01-17T13:42:36.168Z,97851.44
2023-01-17T13:45:09.224Z,97847.94
2023-01-17T13:47:41.580Z,97854.84
2023-01-17T13:50:44.738Z,97860.84
2023-01-17T13:53:28.400Z,97864.25
2023-01-17T13:56:18.150Z,97864.19
2023-01-17T13:58:54.617Z,97873.13
2023-01-17T14:01:31.679Z,97870.06
2023-01-17T14:04:06.874Z,97870.78
2023-01-17T14:06:56.412Z,97881.97
2023-01-17T14:09:36.819Z,97874.03
2023-01-17T14:12:11.069Z,97892.94
2023-01-17T14:14:45.253Z,97897.84
2023-01-17T14:17:16.565Z,97888.88
2023-01-17T14:20:01.995Z,97888.81
2023-01-17T14:22:37.421Z,97893.97
2023-01-17T14:25:19.170Z,97881.69
2023-01-17T14:27:58.573Z,97901.31
2023-01-17T14:30:32.762Z,97902.84
2023-01-17T14:33:19.174Z,97897.47
2023-01-17T14:36:00.759Z,97901.81
2023-01-17T14:38:34.450Z,97908.09
2023-01-17T14:41:09.402Z,97901.59
2023-01-17T14:43:45.252Z,97908.34
2023-01-17T14:46:27.279Z,97922.97
2023-01-17T14:49:04.227Z,97920.94
2023-01-17T14:51:37.069Z,97916.25
2023-01-17T14:54:21.762Z,97920.97
2023-01-17T14:57:13.639Z,97923.03
2023-01-17T14:59:46.260Z,97923.41
2023-01-17T15:02:18.539Z,97923.78
2023-01-17T15:04:54.573Z,97928.41
2023-01-17T15:07:27.225Z,97908.22
2023-01-17T15:09:58.562Z,97925.56
2023-01-17T15:12:29.928Z,97923.16
2023-01-17T15:15:01.277Z,97919.16
2023-01-17T15:17:32.540Z,97927.16
2023-01-17T15:20:09.835Z,97933.50
2023-01-17T15:22:41.437Z,97931.16
2023-01-17T15:25:15.452Z,97919.44
2023-01-17T15:27:47.597Z,97926.66
2023-01-17T15:30:19.061Z,97933.06
2023-01-17T15:32:51.349Z,97949.69
2023-01-17T15:35:23.433Z,97943.84
2023-01-17T15:37:58.070Z,97932.97
2023-01-17T15:40:31.171Z,97950.38
2023-01-17T15:43:02.629Z,97948.88
2023-01-17T15:45:35.947Z,97952.47
2023-01-17T15:48:45.726Z,97959.63
2023-01-17T15:51:31.471Z,97955.59
2023-01-17T15:54:34.255Z,97957.41
2023-01-17T15:57:22.759Z,97955.78
2023-01-17T16:00:04.200Z,97948.09
2023-01-17T16:02:43.651Z,97958.59
2023-01-17T16:05:24.551Z,97956.03
2023-01-17T16:08:06.079Z,97956.09
2023-01-17T16:10:39.018Z,97957.97
2023-01-17T16:13:12.760Z,97974.59
2023-01-17T16:15:44.143Z,97983.38
2023-01-17T16:18:24.055Z,97976.56
2023-01-17T16:21:00.560Z,97974.09
2023-01-17T16:23:31.859Z,97982.94
2023-01-17T16:26:04.379Z,97986.56
2023-01-17T16:28:35.675Z,97993.63
2023-01-17T16:31:07.179Z,97987.59
2023-01-17T16:33:39.240Z,97987.69
2023-01-17T16:36:14.583Z,97967.97
2023-01-17T16:38:49.884Z,97993.00
2023-01-17T16:41:21.710Z,97994.84
2023-01-17T16:43:58.957Z,98001.03
2023-01-17T16:46:31.099Z,97984.84
2023-01-17T16:49:02.384Z,98015.97
2023-01-17T16:51:34.383Z,98019.50
2023-01-17T16:54:05.650Z,98017.91
2023-01-17T16:56:36.944Z,98025.75
2023-01-17T16:59:08.299Z,97968.28
2023-01-17T17:01:39.675Z,98028.59
2023-01-17T17:04:12.999Z,98032.94
2023-01-17T17:06:44.444Z,98043.41
2023-01-17T17:09:15.707Z,98040.84
2023-01-17T17:11:47.096Z,98043.50
2023-01-17T17:14:18.537Z,98048.78
2023-01-17T17:16:51.900Z,98055.81
2023-01-17T17:19:23.224Z,98060.22
2023-01-17T17:21:58.052Z,98050.00
2023-01-17T17:24:29.311Z,98049.13
2023-01-17T17:27:00.703Z,98048.22
2023-01-17T17:29:31.990Z,98055.22
2023-01-17T17:32:03.402Z,98065.66
2023-01-17T17:34:36.564Z,98066.53
2023-01-17T17:37:07.982Z,98069.22
2023-01-17T17:39:39.342Z,98074.50
2023-01-17T17:42:11.389Z,98074.50
2023-01-17T17:44:42.643Z,98079.81
2023-01-17T17:47:15.944Z,98083.22
2023-01-17T17:49:47.342Z,98091.91
2023-01-17T17:52:18.768Z,98096.31
2023-01-17T17:54:50.063Z,98092.06
2023-01-17T17:57:21.352Z,98090.31
2023-01-17T17:59:56.155Z,98074.03
2023-01-17T18:02:27.572Z,98103.44
2023-01-17T18:04:58.956Z,98106.94
2023-01-17T18:07:32.209Z,98084.53
2023-01-17T18:10:03.899Z,98082.97
2023-01-17T18:12:35.243Z,98103.72
2023-01-17T18:15:06.933Z,98095.94
2023-01-17T18:17:38.254Z,98116.66
2023-01-17T18:20:10.829Z,98115.84
2023-01-17T18:22:42.549Z,98106.31
2023-01-17T18:25:13.861Z,98119.31
2023-01-17T18:27:45.230Z,98104.72
2023-01-17T18:30:16.943Z,98109.94
2023-01-17T18:32:49.835Z,98128.03
2023-01-17T18:35:21.131Z,98135.78
2023-01-17T18:37:52.847Z,98077.34
2023-01-17T18:40:24.361Z,98132.41
2023-01-17T18:42:55.934Z,98138.50
2023-01-17T18:45:27.406Z,98131.53
2023-01-17T18:47:59.485Z,98132.41
2023-01-17T18:50:30.756Z,98085.22
2023-01-17T18:53:02.177Z,98123.06
2023-01-17T18:55:33.442Z,98118.81
2023-01-17T18:58:04.723Z,98146.44
2023-01-17T19:00:35.994Z,98135.16
2023-01-17T19:03:07.262Z,98125.63
2023-01-17T19:05:38.511Z,98142.09
2023-01-17T19:08:09.818Z,98119.72
2023-01-17T19:10:41.808Z,98134.44
2023-01-17T19:13:13.165Z,98128.41
2023-01-17T19:15:44.420Z,98146.66
2023-01-17T19:18:15.926Z,98138.88
2023-01-17T19:20:47.217Z,98141.47
2023-01-17T19:23:19.589Z,98131.19
2023-01-17T19:25:55.098Z,98138.16
2023-01-17T19:28:26.396Z,98124.47
2023-01-17T19:31:06.316Z,98148.66
2023-01-17T19:33:39.538Z,98149.53
2023-01-17T19:36:16.796Z,98137.38
2023-01-17T19:39:03.081Z,98131.41
2023-01-17T19:41:44.407Z,98145.25
2023-01-17T19:44:15.790Z,98108.41
2023-01-17T19:46:48.174Z,98133.34
2023-01-17T19:49:24.475Z,98132.53
2023-01-17T19:51:55.738Z,98130.00
2023-01-17T19:54:27.013Z,98154.94
2023-01-17T19:56:58.276Z,98153.28
2023-01-17T19:59:29.543Z,98161.13
2023-01-17T20:02:01.244Z,98160.31
2023-01-17T20:04:32.659Z,98158.63
2023-01-17T20:07:03.923Z,98161.25
2023-01-17T20:09:35.330Z,98157.81
2023-01-17T20:12:06.840Z,98158.81
2023-01-17T20:14:38.097Z,98168.28
2023-01-17T20:17:09.357Z,98164.00
2023-01-17T20:19:40.615Z,98154.59
2023-01-17T20:22:12.108Z,98163.22
2023-01-17T20:24:43.497Z,98153.00
2023-01-17T20:27:14.796Z,98174.63
2023-01-17T20:29:46.503Z,98170.31
2023-01-17T20:32:18.037Z,98154.84
2023-01-17T20:34:50.568Z,98155.84
2023-01-17T20:37:21.819Z,98172.22
2023-01-17T20:39:53.986Z,98155.03
2023-01-17T20:42:25.230Z,98170.53
2023-01-17T20:44:56.539Z,98177.50
2023-01-17T20:47:29.518Z,98182.75
2023-01-17T20:50:03.024Z,98170.69
2023-01-17T20:52:34.295Z,98181.09
2023-01-17T20:55:08.228Z,98170.00
2023-01-17T20:57:39.651Z,98160.56
2023-01-17T21:00:12.178Z,98188.16
2023-01-17T21:02:43.648Z,98190.84
2023-01-17T21:05:16.312Z,98167.59
2023-01-17T21:07:47.579Z,98190.06
2023-01-17T21:10:19.443Z,98187.50
2023-01-17T21:12:50.713Z,98182.34
2023-01-17T21:15:22.073Z,98181.53
2023-01-17T21:17:53.405Z,98188.50
2023-01-17T21:20:27.236Z,98195.44
2023-01-17T21:22:58.502Z,98185.13
2023-01-17T21:25:29.764Z,98173.97
2023-01-17T21:28:01.061Z,98195.50
2023-01-17T21:30:33.044Z,98203.31
2023-01-17T21:33:04.850Z,98199.09
2023-01-17T21:35:36.129Z,98206.84
2023-01-17T21:38:07.587Z,98218.13
2023-01-17T21:40:39.114Z,98181.91
2023-01-17T21:43:11.161Z,98212.97
2023-01-17T21:45:42.893Z,98207.72
2023-01-17T21:48:14.552Z,98193.97
2023-01-17T21:50:47.184Z,98204.31
2023-01-17T21:53:18.466Z,98221.63
2023-01-17T21:56:08.407Z,98211.25
2023-01-17T21:58:45.637Z,98225.13
2023-01-17T22:01:18.269Z,98227.69
2023-01-17T22:03:58.205Z,98202.72
2023-01-17T22:06:32.005Z,98225.13
2023-01-17T22:09:03.378Z,98229.41
2023-01-17T22:11:36.409Z,98237.22
2023-01-17T22:14:07.729Z,98250.19
2023-01-17T22:16:39.017Z,98251.94
2023-01-17T22:19:10.280Z,98237.28
2023-01-17T22:21:43.714Z,98258.00
2023-01-17T22:24:16.795Z,98266.66
2023-01-17T22:26:48.067Z,98268.41
2023-01-17T22:29:19.366Z,98266.66
2023-01-17T22:31:50.702Z,98265.78
2023-01-17T22:34:22.745Z,98252.88
2023-01-17T22:36:54.055Z,98274.47
2023-01-17T22:39:25.453Z,98279.69
2023-01-17T22:41:56.714Z,98260.75
2023-01-17T22:44:28.009Z,98262.50
2023-01-17T22:46:59.285Z,98289.25
2023-01-17T22:49:30.555Z,98283.19
2023-01-17T22:52:01.893Z,98284.09
2023-01-17T22:54:33.162Z,98289.31
2023-01-17T22:57:06.056Z,98284.16
2023-01-17T22:59:37.408Z,98277.22
2023-01-17T23:02:08.817Z,98279.84
2023-01-17T23:04:40.190Z,98283.34
2023-01-17T23:07:11.615Z,98286.81
2023-01-17T23:09:42.881Z,98296.38
2023-01-17T23:12:14.158Z,98238.56
2023-01-17T23:15:04.300Z,98289.47
2023-01-17T23:17:54.129Z,98303.31
2023-01-17T23:20:25.391Z,98305.09
2023-01-17T23:22:57.106Z,98289.59
2023-01-17T23:25:28.527Z,98318.97
2023-01-17T23:28:11.615Z,98313.78
2023-01-17T23:30:42.951Z,98319.81
2023-01-17T23:33:16.564Z,98321.56
2023-01-17T23:35:47.858Z,98317.25
2023-01-17T23:38:25.786Z,98318.09
2023-01-17T23:41:24.907Z,98325.00
2023-01-17T23:43:57.948Z,98318.09
2023-01-17T23:46:30.051Z,98324.22
2023-01-17T23:49:01.552Z,98295.75
2023-01-17T23:51:32.889Z,98320.78
2023-01-17T23:54:05.141Z,98308.75
2023-01-17T23:56:36.564Z,98322.56
2023-01-17T23:59:07.855Z,98327.78
